sensor_id;sensor_type;location;lat;lon;timestamp;temperature;humidity
20803;DHT22;10562;-33.856;151.182;2023-11-19T00:02:23;26.60;99.90
20803;DHT22;10562;-33.856;151.182;2023-11-19T00:04:56;26.40;99.90
20803;DHT22;10562;-33.856;151.182;2023-11-19T00:07:27;26.40;99.90
20803;DHT22;10562;-33.856;151.182;2023-11-19T00:09:58;26.40;99.90
20803;DHT22;10562;-33.856;151.182;2023-11-19T00:12:38;26.40;99.90
20803;DHT22;10562;-33.856;151.182;2023-11-19T00:15:10;26.60;99.90
20803;DHT22;10562;-33.856;151.182;2023-11-19T00:17:42;26.70;99.90
20803;DHT22;10562;-33.856;151.182;2023-11-19T00:20:15;26.80;99.90
20803;DHT22;10562;-33.856;151.182;2023-11-19T00:22:46;26.80;99.90
20803;DHT22;10562;-33.856;151.182;2023-11-19T00:25:19;26.70;99.90
20803;DHT22;10562;-33.856;151.182;2023-11-19T00:27:50;26.70;99.90
20803;DHT22;10562;-33.856;151.182;2023-11-19T00:30:21;26.90;99.90
20803;DHT22;10562;-33.856;151.182;2023-11-19T00:32:52;27.10;99.90
20803;DHT22;10562;-33.856;151.182;2023-11-19T00:35:24;27.20;99.90
20803;DHT22;10562;-33.856;151.182;2023-11-19T00:37:55;27.20;99.90
20803;DHT22;10562;-33.856;151.182;2023-11-19T00:40:26;27.40;99.90
20803;DHT22;10562;-33.856;151.182;2023-11-19T00:42:57;27.40;99.90
20803;DHT22;10562;-33.856;151.182;2023-11-19T00:45:27;27.60;99.90
20803;DHT22;10562;-33.856;151.182;2023-11-19T00:47:58;27.70;99.90
20803;DHT22;10562;-33.856;151.182;2023-11-19T00:50:31;27.80;99.90
20803;DHT22;10562;-33.856;151.182;2023-11-19T00:53:02;27.90;99.90
20803;DHT22;10562;-33.856;151.182;2023-11-19T00:55:33;27.90;99.90
20803;DHT22;10562;-33.856;151.182;2023-11-19T00:58:03;28.10;99.90
20803;DHT22;10562;-33.856;151.182;2023-11-19T01:00:34;28.10;99.90
20803;DHT22;10562;-33.856;151.182;2023-11-19T01:03:05;28.10;99.90
20803;DHT22;10562;-33.856;151.182;2023-11-19T01:05:38;28.10;99.90
20803;DHT22;10562;-33.856;151.182;2023-11-19T01:08:09;28.30;99.90
20803;DHT22;10562;-33.856;151.182;2023-11-19T01:10:40;28.40;99.90
20803;DHT22;10562;-33.856;151.182;2023-11-19T01:13:12;28.50;99.90
20803;DHT22;10562;-33.856;151.182;2023-11-19T01:15:42;28.50;99.90
20803;DHT22;10562;-33.856;151.182;2023-11-19T01:18:13;28.50;99.90
20803;DHT22;10562;-33.856;151.182;2023-11-19T01:20:48;28.50;99.90
20803;DHT22;10562;-33.856;151.182;2023-11-19T01:23:18;28.50;99.90
20803;DHT22;10562;-33.856;151.182;2023-11-19T01:25:52;28.40;99.90
20803;DHT22;10562;-33.856;151.182;2023-11-19T01:28:22;28.50;99.90
20803;DHT22;10562;-33.856;151.182;2023-11-19T01:30:53;28.40;99.90
20803;DHT22;10562;-33.856;151.182;2023-11-19T01:33:24;28.40;99.90
20803;DHT22;10562;-33.856;151.182;2023-11-19T01:35:57;28.40;99.90
20803;DHT22;10562;-33.856;151.182;2023-11-19T01:38:28;28.50;99.90
20803;DHT22;10562;-33.856;151.182;2023-11-19T01:40:59;28.50;99.90
20803;DHT22;10562;-33.856;151.182;2023-11-19T01:43:34;28.40;99.90
20803;DHT22;10562;-33.856;151.182;2023-11-19T01:46:06;28.40;99.90
20803;DHT22;10562;-33.856;151.182;2023-11-19T01:48:44;28.40;99.90
20803;DHT22;10562;-33.856;151.182;2023-11-19T01:51:18;28.40;99.90
20803;DHT22;10562;-33.856;151.182;2023-11-19T01:53:49;28.50;99.90
20803;DHT22;10562;-33.856;151.182;2023-11-19T01:56:21;28.50;99.90
20803;DHT22;10562;-33.856;151.182;2023-11-19T01:58:53;28.60;99.90
20803;DHT22;10562;-33.856;151.182;2023-11-19T02:01:24;28.40;99.90
20803;DHT22;10562;-33.856;151.182;2023-11-19T02:03:56;28.30;99.90
20803;DHT22;10562;-33.856;151.182;2023-11-19T02:06:29;28.30;99.90
20803;DHT22;10562;-33.856;151.182;2023-11-19T02:09:01;28.30;99.90
20803;DHT22;10562;-33.856;151.182;2023-11-19T02:11:41;28.20;99.90
20803;DHT22;10562;-33.856;151.182;2023-11-19T02:14:12;28.30;99.90
20803;DHT22;10562;-33.856;151.182;2023-11-19T02:16:43;28.30;99.90
20803;DHT22;10562;-33.856;151.182;2023-11-19T02:19:14;28.20;99.90
20803;DHT22;10562;-33.856;151.182;2023-11-19T02:21:46;28.40;99.90
20803;DHT22;10562;-33.856;151.182;2023-11-19T02:24:18;28.20;99.90
20803;DHT22;10562;-33.856;151.182;2023-11-19T02:26:57;28.20;99.90
20803;DHT22;10562;-33.856;151.182;2023-11-19T02:29:31;28.30;99.90
20803;DHT22;10562;-33.856;151.182;2023-11-19T02:32:02;28.50;99.90
20803;DHT22;10562;-33.856;151.182;2023-11-19T02:34:33;28.50;99.90
20803;DHT22;10562;-33.856;151.182;2023-11-19T02:37:04;28.40;99.90
20803;DHT22;10562;-33.856;151.182;2023-11-19T02:39:36;28.60;99.90
20803;DHT22;10562;-33.856;151.182;2023-11-19T02:42:07;28.50;99.90
20803;DHT22;10562;-33.856;151.182;2023-11-19T02:44:43;28.40;99.90
20803;DHT22;10562;-33.856;151.182;2023-11-19T02:47:16;28.20;99.90
20803;DHT22;10562;-33.856;151.182;2023-11-19T02:49:49;27.90;99.90
20803;DHT22;10562;-33.856;151.182;2023-11-19T02:52:20;27.90;99.90
20803;DHT22;10562;-33.856;151.182;2023-11-19T02:54:52;27.90;99.90
20803;DHT22;10562;-33.856;151.182;2023-11-19T02:57:23;27.90;99.90
20803;DHT22;10562;-33.856;151.182;2023-11-19T02:59:56;28.00;99.90
20803;DHT22;10562;-33.856;151.182;2023-11-19T03:02:27;28.10;99.90
20803;DHT22;10562;-33.856;151.182;2023-11-19T03:05:01;28.30;99.90
20803;DHT22;10562;-33.856;151.182;2023-11-19T03:07:32;28.40;99.90
20803;DHT22;10562;-33.856;151.182;2023-11-19T03:10:03;28.50;99.90
20803;DHT22;10562;-33.856;151.182;2023-11-19T03:12:34;28.50;99.90
20803;DHT22;10562;-33.856;151.182;2023-11-19T03:15:08;28.40;99.90
20803;DHT22;10562;-33.856;151.182;2023-11-19T03:17:40;28.50;99.90
20803;DHT22;10562;-33.856;151.182;2023-11-19T03:20:12;28.60;99.90
20803;DHT22;10562;-33.856;151.182;2023-11-19T03:22:45;28.60;99.90
20803;DHT22;10562;-33.856;151.182;2023-11-19T03:25:16;28.70;99.90
20803;DHT22;10562;-33.856;151.182;2023-11-19T03:27:46;28.60;99.90
20803;DHT22;10562;-33.856;151.182;2023-11-19T03:30:22;28.80;99.90
20803;DHT22;10562;-33.856;151.182;2023-11-19T03:32:53;29.20;99.90
20803;DHT22;10562;-33.856;151.182;2023-11-19T03:35:24;29.50;99.90
20803;DHT22;10562;-33.856;151.182;2023-11-19T03:37:55;29.50;99.90
20803;DHT22;10562;-33.856;151.182;2023-11-19T03:40:26;29.80;99.90
20803;DHT22;10562;-33.856;151.182;2023-11-19T03:42:58;29.70;99.90
20803;DHT22;10562;-33.856;151.182;2023-11-19T03:45:30;30.10;99.90
20803;DHT22;10562;-33.856;151.182;2023-11-19T03:48:04;30.00;99.90
20803;DHT22;10562;-33.856;151.182;2023-11-19T03:50:35;29.70;99.90
20803;DHT22;10562;-33.856;151.182;2023-11-19T03:53:06;29.50;99.90
20803;DHT22;10562;-33.856;151.182;2023-11-19T03:55:37;29.80;99.90
20803;DHT22;10562;-33.856;151.182;2023-11-19T03:58:07;29.80;99.90
20803;DHT22;10562;-33.856;151.182;2023-11-19T04:00:41;29.80;99.90
20803;DHT22;10562;-33.856;151.182;2023-11-19T04:03:12;29.90;99.90
20803;DHT22;10562;-33.856;151.182;2023-11-19T04:05:43;30.00;99.90
20803;DHT22;10562;-33.856;151.182;2023-11-19T04:08:14;29.90;99.90
20803;DHT22;10562;-33.856;151.182;2023-11-19T04:10:45;29.80;99.90
20803;DHT22;10562;-33.856;151.182;2023-11-19T04:13:15;29.70;99.90
20803;DHT22;10562;-33.856;151.182;2023-11-19T04:15:50;30.00;99.90
20803;DHT22;10562;-33.856;151.182;2023-11-19T04:18:21;29.90;99.90
20803;DHT22;10562;-33.856;151.182;2023-11-19T04:20:51;29.90;99.90
20803;DHT22;10562;-33.856;151.182;2023-11-19T04:23:22;29.80;99.90
20803;DHT22;10562;-33.856;151.182;2023-11-19T04:25:54;29.80;99.90
20803;DHT22;10562;-33.856;151.182;2023-11-19T04:28:25;30.00;99.90
20803;DHT22;10562;-33.856;151.182;2023-11-19T04:30:58;30.10;99.90
20803;DHT22;10562;-33.856;151.182;2023-11-19T04:33:29;30.40;99.90
20803;DHT22;10562;-33.856;151.182;2023-11-19T04:36:00;30.20;99.90
20803;DHT22;10562;-33.856;151.182;2023-11-19T04:38:30;29.90;99.90
20803;DHT22;10562;-33.856;151.182;2023-11-19T04:41:01;29.70;99.90
20803;DHT22;10562;-33.856;151.182;2023-11-19T04:43:33;29.60;99.90
20803;DHT22;10562;-33.856;151.182;2023-11-19T04:46:07;29.20;99.90
20803;DHT22;10562;-33.856;151.182;2023-11-19T04:48:40;29.50;99.90
20803;DHT22;10562;-33.856;151.182;2023-11-19T04:51:11;29.50;99.90
20803;DHT22;10562;-33.856;151.182;2023-11-19T04:53:42;29.60;99.90
20803;DHT22;10562;-33.856;151.182;2023-11-19T04:56:13;29.50;99.90
20803;DHT22;10562;-33.856;151.182;2023-11-19T04:58:44;29.70;99.90
20803;DHT22;10562;-33.856;151.182;2023-11-19T05:01:17;29.50;99.90
20803;DHT22;10562;-33.856;151.182;2023-11-19T05:03:51;29.40;99.90
20803;DHT22;10562;-33.856;151.182;2023-11-19T05:06:22;29.50;99.90
20803;DHT22;10562;-33.856;151.182;2023-11-19T05:08:53;29.70;99.90
20803;DHT22;10562;-33.856;151.182;2023-11-19T05:11:24;29.60;99.90
20803;DHT22;10562;-33.856;151.182;2023-11-19T05:13:56;29.20;99.90
20803;DHT22;10562;-33.856;151.182;2023-11-19T05:16:28;29.20;99.90
20803;DHT22;10562;-33.856;151.182;2023-11-19T05:18:59;29.00;99.90
20803;DHT22;10562;-33.856;151.182;2023-11-19T05:21:30;29.00;99.90
20803;DHT22;10562;-33.856;151.182;2023-11-19T05:24:01;29.00;99.90
20803;DHT22;10562;-33.856;151.182;2023-11-19T05:26:32;29.20;99.90
20803;DHT22;10562;-33.856;151.182;2023-11-19T05:29:03;29.40;99.90
20803;DHT22;10562;-33.856;151.182;2023-11-19T05:31:36;29.40;99.90
20803;DHT22;10562;-33.856;151.182;2023-11-19T05:34:07;29.40;99.90
20803;DHT22;10562;-33.856;151.182;2023-11-19T05:36:38;29.60;99.90
20803;DHT22;10562;-33.856;151.182;2023-11-19T05:39:08;29.60;99.90
20803;DHT22;10562;-33.856;151.182;2023-11-19T05:41:39;29.30;99.90
20803;DHT22;10562;-33.856;151.182;2023-11-19T05:44:11;28.90;99.90
20803;DHT22;10562;-33.856;151.182;2023-11-19T05:46:43;29.00;99.90
20803;DHT22;10562;-33.856;151.182;2023-11-19T05:49:14;28.60;99.90
20803;DHT22;10562;-33.856;151.182;2023-11-19T05:51:45;28.00;99.90
20803;DHT22;10562;-33.856;151.182;2023-11-19T05:54:16;27.10;99.90
20803;DHT22;10562;-33.856;151.182;2023-11-19T05:56:49;26.60;99.90
20803;DHT22;10562;-33.856;151.182;2023-11-19T05:59:22;26.00;99.90
20803;DHT22;10562;-33.856;151.182;2023-11-19T06:01:54;25.50;99.90
20803;DHT22;10562;-33.856;151.182;2023-11-19T06:04:25;25.10;99.90
20803;DHT22;10562;-33.856;151.182;2023-11-19T06:06:56;24.70;99.90
20803;DHT22;10562;-33.856;151.182;2023-11-19T06:09:27;24.40;99.90
20803;DHT22;10562;-33.856;151.182;2023-11-19T06:11:58;24.50;99.90
20803;DHT22;10562;-33.856;151.182;2023-11-19T06:14:29;24.70;99.90
20803;DHT22;10562;-33.856;151.182;2023-11-19T06:17:02;24.70;99.90
20803;DHT22;10562;-33.856;151.182;2023-11-19T06:19:33;24.50;99.90
20803;DHT22;10562;-33.856;151.182;2023-11-19T06:22:04;24.30;99.90
20803;DHT22;10562;-33.856;151.182;2023-11-19T06:24:34;24.10;99.90
20803;DHT22;10562;-33.856;151.182;2023-11-19T06:27:05;23.90;99.90
20803;DHT22;10562;-33.856;151.182;2023-11-19T06:29:36;23.80;99.90
20803;DHT22;10562;-33.856;151.182;2023-11-19T06:32:10;23.60;99.90
20803;DHT22;10562;-33.856;151.182;2023-11-19T06:34:42;23.50;99.90
20803;DHT22;10562;-33.856;151.182;2023-11-19T06:37:13;23.50;99.90
20803;DHT22;10562;-33.856;151.182;2023-11-19T06:39:44;23.50;99.90
20803;DHT22;10562;-33.856;151.182;2023-11-19T06:42:14;23.50;99.90
20803;DHT22;10562;-33.856;151.182;2023-11-19T06:44:45;23.50;99.90
20803;DHT22;10562;-33.856;151.182;2023-11-19T06:47:18;23.30;99.90
20803;DHT22;10562;-33.856;151.182;2023-11-19T06:49:49;23.20;99.90
20803;DHT22;10562;-33.856;151.182;2023-11-19T06:52:19;23.10;99.90
20803;DHT22;10562;-33.856;151.182;2023-11-19T06:54:50;23.00;99.90
20803;DHT22;10562;-33.856;151.182;2023-11-19T06:57:21;23.00;99.90
20803;DHT22;10562;-33.856;151.182;2023-11-19T06:59:52;22.90;99.90
20803;DHT22;10562;-33.856;151.182;2023-11-19T07:02:25;22.90;99.90
20803;DHT22;10562;-33.856;151.182;2023-11-19T07:04:55;22.80;99.90
20803;DHT22;10562;-33.856;151.182;2023-11-19T07:07:29;22.70;99.90
20803;DHT22;10562;-33.856;151.182;2023-11-19T07:10:00;22.60;99.90
20803;DHT22;10562;-33.856;151.182;2023-11-19T07:12:32;22.50;99.90
20803;DHT22;10562;-33.856;151.182;2023-11-19T07:15:03;22.50;99.90
20803;DHT22;10562;-33.856;151.182;2023-11-19T07:17:37;22.50;99.90
20803;DHT22;10562;-33.856;151.182;2023-11-19T07:20:10;22.50;99.90
20803;DHT22;10562;-33.856;151.182;2023-11-19T07:22:44;22.50;99.90
20803;DHT22;10562;-33.856;151.182;2023-11-19T07:25:16;22.40;99.90
20803;DHT22;10562;-33.856;151.182;2023-11-19T07:27:47;22.40;99.90
20803;DHT22;10562;-33.856;151.182;2023-11-19T07:30:18;22.40;99.90
20803;DHT22;10562;-33.856;151.182;2023-11-19T07:32:50;22.40;99.90
20803;DHT22;10562;-33.856;151.182;2023-11-19T07:35:21;22.30;99.90
20803;DHT22;10562;-33.856;151.182;2023-11-19T07:37:52;22.30;99.90
20803;DHT22;10562;-33.856;151.182;2023-11-19T07:40:23;22.20;99.90
20803;DHT22;10562;-33.856;151.182;2023-11-19T07:42:53;22.20;99.90
20803;DHT22;10562;-33.856;151.182;2023-11-19T07:45:24;22.20;99.90
20803;DHT22;10562;-33.856;151.182;2023-11-19T07:47:57;22.10;99.90
20803;DHT22;10562;-33.856;151.182;2023-11-19T07:50:29;22.00;99.90
20803;DHT22;10562;-33.856;151.182;2023-11-19T07:52:59;22.00;99.90
20803;DHT22;10562;-33.856;151.182;2023-11-19T07:55:32;22.00;99.90
20803;DHT22;10562;-33.856;151.182;2023-11-19T07:58:02;21.90;99.90
20803;DHT22;10562;-33.856;151.182;2023-11-19T08:00:34;21.90;99.90
20803;DHT22;10562;-33.856;151.182;2023-11-19T08:03:06;21.80;99.90
20803;DHT22;10562;-33.856;151.182;2023-11-19T08:05:37;21.80;99.90
20803;DHT22;10562;-33.856;151.182;2023-11-19T08:08:10;21.80;99.90
20803;DHT22;10562;-33.856;151.182;2023-11-19T08:10:40;21.80;99.90
20803;DHT22;10562;-33.856;151.182;2023-11-19T08:13:12;21.70;99.90
20803;DHT22;10562;-33.856;151.182;2023-11-19T08:15:43;21.60;99.90
20803;DHT22;10562;-33.856;151.182;2023-11-19T08:18:16;21.60;99.90
20803;DHT22;10562;-33.856;151.182;2023-11-19T08:20:46;21.60;99.90
20803;DHT22;10562;-33.856;151.182;2023-11-19T08:23:21;21.50;99.90
20803;DHT22;10562;-33.856;151.182;2023-11-19T08:25:53;21.50;99.90
20803;DHT22;10562;-33.856;151.182;2023-11-19T08:28:24;21.50;99.90
20803;DHT22;10562;-33.856;151.182;2023-11-19T08:30:55;21.40;99.90
20803;DHT22;10562;-33.856;151.182;2023-11-19T08:33:28;21.40;99.90
20803;DHT22;10562;-33.856;151.182;2023-11-19T08:35:59;21.30;99.90
20803;DHT22;10562;-33.856;151.182;2023-11-19T08:38:31;21.20;99.90
20803;DHT22;10562;-33.856;151.182;2023-11-19T08:41:02;21.20;99.90
20803;DHT22;10562;-33.856;151.182;2023-11-19T08:43:35;21.20;99.90
20803;DHT22;10562;-33.856;151.182;2023-11-19T08:46:11;21.20;99.90
20803;DHT22;10562;-33.856;151.182;2023-11-19T08:48:44;21.20;99.90
20803;DHT22;10562;-33.856;151.182;2023-11-19T08:51:14;21.10;99.90
20803;DHT22;10562;-33.856;151.182;2023-11-19T08:53:45;21.10;99.90
20803;DHT22;10562;-33.856;151.182;2023-11-19T08:56:16;21.10;99.90
20803;DHT22;10562;-33.856;151.182;2023-11-19T08:58:48;21.00;99.90
20803;DHT22;10562;-33.856;151.182;2023-11-19T09:01:20;21.00;99.90
20803;DHT22;10562;-33.856;151.182;2023-11-19T09:03:52;21.00;99.90
20803;DHT22;10562;-33.856;151.182;2023-11-19T09:06:23;21.00;99.90
20803;DHT22;10562;-33.856;151.182;2023-11-19T09:08:54;20.90;99.90
20803;DHT22;10562;-33.856;151.182;2023-11-19T09:11:29;21.00;99.90
20803;DHT22;10562;-33.856;151.182;2023-11-19T09:14:00;20.90;99.90
20803;DHT22;10562;-33.856;151.182;2023-11-19T09:16:30;20.90;99.90
20803;DHT22;10562;-33.856;151.182;2023-11-19T09:19:04;20.90;99.90
20803;DHT22;10562;-33.856;151.182;2023-11-19T09:21:35;20.90;99.90
20803;DHT22;10562;-33.856;151.182;2023-11-19T09:24:07;20.90;99.90
20803;DHT22;10562;-33.856;151.182;2023-11-19T09:26:42;20.80;99.90
20803;DHT22;10562;-33.856;151.182;2023-11-19T09:29:12;20.80;99.90
20803;DHT22;10562;-33.856;151.182;2023-11-19T09:31:44;20.80;99.90
20803;DHT22;10562;-33.856;151.182;2023-11-19T09:34:17;20.80;99.90
20803;DHT22;10562;-33.856;151.182;2023-11-19T09:36:48;20.80;99.90
20803;DHT22;10562;-33.856;151.182;2023-11-19T09:39:19;20.80;99.90
20803;DHT22;10562;-33.856;151.182;2023-11-19T09:41:49;20.70;99.90
20803;DHT22;10562;-33.856;151.182;2023-11-19T09:44:21;20.70;99.90
20803;DHT22;10562;-33.856;151.182;2023-11-19T09:46:52;20.70;99.90
20803;DHT22;10562;-33.856;151.182;2023-11-19T09:49:27;20.70;99.90
20803;DHT22;10562;-33.856;151.182;2023-11-19T09:51:58;20.70;99.90
20803;DHT22;10562;-33.856;151.182;2023-11-19T09:54:30;20.70;99.90
20803;DHT22;10562;-33.856;151.182;2023-11-19T09:57:02;20.70;99.90
20803;DHT22;10562;-33.856;151.182;2023-11-19T09:59:35;20.70;99.90
20803;DHT22;10562;-33.856;151.182;2023-11-19T10:02:07;20.70;99.90
20803;DHT22;10562;-33.856;151.182;2023-11-19T10:04:42;20.70;99.90
20803;DHT22;10562;-33.856;151.182;2023-11-19T10:07:14;20.60;99.90
20803;DHT22;10562;-33.856;151.182;2023-11-19T10:09:46;20.60;99.90
20803;DHT22;10562;-33.856;151.182;2023-11-19T10:12:17;20.60;99.90
20803;DHT22;10562;-33.856;151.182;2023-11-19T10:14:49;20.60;99.90
20803;DHT22;10562;-33.856;151.182;2023-11-19T10:17:21;20.60;99.90
20803;DHT22;10562;-33.856;151.182;2023-11-19T10:19:54;20.60;99.90
20803;DHT22;10562;-33.856;151.182;2023-11-19T10:22:25;20.60;99.90
20803;DHT22;10562;-33.856;151.182;2023-11-19T10:24:58;20.50;99.90
20803;DHT22;10562;-33.856;151.182;2023-11-19T10:27:28;20.50;99.90
20803;DHT22;10562;-33.856;151.182;2023-11-19T10:30:01;20.50;99.90
20803;DHT22;10562;-33.856;151.182;2023-11-19T10:32:33;20.60;99.90
20803;DHT22;10562;-33.856;151.182;2023-11-19T10:35:09;20.50;99.90
20803;DHT22;10562;-33.856;151.182;2023-11-19T10:37:40;20.50;99.90
20803;DHT22;10562;-33.856;151.182;2023-11-19T10:40:11;20.50;99.90
20803;DHT22;10562;-33.856;151.182;2023-11-19T10:42:43;20.50;99.90
20803;DHT22;10562;-33.856;151.182;2023-11-19T10:45:23;20.50;99.90
20803;DHT22;10562;-33.856;151.182;2023-11-19T10:47:55;20.50;99.90
20803;DHT22;10562;-33.856;151.182;2023-11-19T10:50:29;20.40;99.90
20803;DHT22;10562;-33.856;151.182;2023-11-19T10:53:01;20.40;99.90
20803;DHT22;10562;-33.856;151.182;2023-11-19T10:55:32;20.40;99.90
20803;DHT22;10562;-33.856;151.182;2023-11-19T10:58:04;20.40;99.90
20803;DHT22;10562;-33.856;151.182;2023-11-19T11:00:38;20.40;99.90
20803;DHT22;10562;-33.856;151.182;2023-11-19T11:03:15;20.40;99.90
20803;DHT22;10562;-33.856;151.182;2023-11-19T11:05:50;20.40;99.90
20803;DHT22;10562;-33.856;151.182;2023-11-19T11:08:22;20.40;99.90
20803;DHT22;10562;-33.856;151.182;2023-11-19T11:10:54;20.40;99.90
20803;DHT22;10562;-33.856;151.182;2023-11-19T11:13:26;20.40;99.90
20803;DHT22;10562;-33.856;151.182;2023-11-19T11:15:58;20.40;99.90
20803;DHT22;10562;-33.856;151.182;2023-11-19T11:18:29;20.30;99.90
20803;DHT22;10562;-33.856;151.182;2023-11-19T11:21:04;20.40;99.90
20803;DHT22;10562;-33.856;151.182;2023-11-19T11:27:00;20.30;99.90
20803;DHT22;10562;-33.856;151.182;2023-11-19T11:29:40;20.30;99.90
20803;DHT22;10562;-33.856;151.182;2023-11-19T11:32:21;20.30;99.90
20803;DHT22;10562;-33.856;151.182;2023-11-19T11:35:10;20.30;99.90
20803;DHT22;10562;-33.856;151.182;2023-11-19T11:37:49;20.30;99.90
20803;DHT22;10562;-33.856;151.182;2023-11-19T11:40:20;20.20;99.90
20803;DHT22;10562;-33.856;151.182;2023-11-19T11:42:51;20.20;99.90
20803;DHT22;10562;-33.856;151.182;2023-11-19T11:45:36;20.20;99.90
20803;DHT22;10562;-33.856;151.182;2023-11-19T11:48:13;20.20;99.90
20803;DHT22;10562;-33.856;151.182;2023-11-19T11:50:52;20.10;99.90
20803;DHT22;10562;-33.856;151.182;2023-11-19T11:53:28;20.20;99.90
20803;DHT22;10562;-33.856;151.182;2023-11-19T11:56:01;20.10;99.90
20803;DHT22;10562;-33.856;151.182;2023-11-19T11:58:35;20.10;99.90
20803;DHT22;10562;-33.856;151.182;2023-11-19T12:01:16;20.00;99.90
20803;DHT22;10562;-33.856;151.182;2023-11-19T12:03:52;20.00;99.90
20803;DHT22;10562;-33.856;151.182;2023-11-19T12:06:28;20.00;99.90
20803;DHT22;10562;-33.856;151.182;2023-11-19T12:09:03;20.00;99.90
20803;DHT22;10562;-33.856;151.182;2023-11-19T12:11:35;20.00;99.90
20803;DHT22;10562;-33.856;151.182;2023-11-19T12:14:06;19.90;99.90
20803;DHT22;10562;-33.856;151.182;2023-11-19T12:16:37;19.90;99.90
20803;DHT22;10562;-33.856;151.182;2023-11-19T12:19:08;19.90;99.90
20803;DHT22;10562;-33.856;151.182;2023-11-19T12:21:39;19.80;99.90
20803;DHT22;10562;-33.856;151.182;2023-11-19T12:24:12;19.80;99.90
20803;DHT22;10562;-33.856;151.182;2023-11-19T12:26:43;19.80;99.90
20803;DHT22;10562;-33.856;151.182;2023-11-19T12:29:15;19.80;99.90
20803;DHT22;10562;-33.856;151.182;2023-11-19T12:31:55;19.80;99.90
20803;DHT22;10562;-33.856;151.182;2023-11-19T12:34:30;19.80;99.90
20803;DHT22;10562;-33.856;151.182;2023-11-19T12:37:05;19.80;99.90
20803;DHT22;10562;-33.856;151.182;2023-11-19T12:39:39;19.80;99.90
20803;DHT22;10562;-33.856;151.182;2023-11-19T12:42:11;19.80;99.90
20803;DHT22;10562;-33.856;151.182;2023-11-19T12:44:55;19.80;99.90
20803;DHT22;10562;-33.856;151.182;2023-11-19T12:47:26;19.80;99.90
20803;DHT22;10562;-33.856;151.182;2023-11-19T12:50:00;19.70;99.90
20803;DHT22;10562;-33.856;151.182;2023-11-19T12:52:31;19.70;99.90
20803;DHT22;10562;-33.856;151.182;2023-11-19T12:55:05;19.70;99.90
20803;DHT22;10562;-33.856;151.182;2023-11-19T12:57:42;19.70;99.90
20803;DHT22;10562;-33.856;151.182;2023-11-19T13:00:20;19.70;99.90
20803;DHT22;10562;-33.856;151.182;2023-11-19T13:02:52;19.70;99.90
20803;DHT22;10562;-33.856;151.182;2023-11-19T13:05:25;19.70;99.90
20803;DHT22;10562;-33.856;151.182;2023-11-19T13:08:04;19.70;99.90
20803;DHT22;10562;-33.856;151.182;2023-11-19T13:10:51;19.70;99.90
20803;DHT22;10562;-33.856;151.182;2023-11-19T13:13:22;19.70;99.90
20803;DHT22;10562;-33.856;151.182;2023-11-19T13:15:53;19.70;99.90
20803;DHT22;10562;-33.856;151.182;2023-11-19T13:18:25;19.70;99.90
20803;DHT22;10562;-33.856;151.182;2023-11-19T13:20:56;19.70;99.90
20803;DHT22;10562;-33.856;151.182;2023-11-19T13:23:27;19.70;99.90
20803;DHT22;10562;-33.856;151.182;2023-11-19T13:26:00;19.70;99.90
20803;DHT22;10562;-33.856;151.182;2023-11-19T13:28:32;19.70;99.90
20803;DHT22;10562;-33.856;151.182;2023-11-19T13:31:03;19.60;99.90
20803;DHT22;10562;-33.856;151.182;2023-11-19T13:33:34;19.70;99.90
20803;DHT22;10562;-33.856;151.182;2023-11-19T13:36:05;19.70;99.90
20803;DHT22;10562;-33.856;151.182;2023-11-19T13:38:37;19.70;99.90
20803;DHT22;10562;-33.856;151.182;2023-11-19T13:41:10;19.70;99.90
20803;DHT22;10562;-33.856;151.182;2023-11-19T13:43:41;19.60;99.90
20803;DHT22;10562;-33.856;151.182;2023-11-19T13:46:12;19.70;99.90
20803;DHT22;10562;-33.856;151.182;2023-11-19T13:48:43;19.70;99.90
20803;DHT22;10562;-33.856;151.182;2023-11-19T13:51:14;19.70;99.90
20803;DHT22;10562;-33.856;151.182;2023-11-19T13:53:45;19.60;99.90
20803;DHT22;10562;-33.856;151.182;2023-11-19T13:56:18;19.70;99.90
20803;DHT22;10562;-33.856;151.182;2023-11-19T13:58:49;19.70;99.90
20803;DHT22;10562;-33.856;151.182;2023-11-19T14:01:21;19.70;99.90
20803;DHT22;10562;-33.856;151.182;2023-11-19T14:03:52;19.70;99.90
20803;DHT22;10562;-33.856;151.182;2023-11-19T14:06:23;19.80;99.90
20803;DHT22;10562;-33.856;151.182;2023-11-19T14:08:54;19.70;99.90
20803;DHT22;10562;-33.856;151.182;2023-11-19T14:11:27;19.80;99.90
20803;DHT22;10562;-33.856;151.182;2023-11-19T14:13:57;19.80;99.90
20803;DHT22;10562;-33.856;151.182;2023-11-19T14:16:28;19.80;99.90
20803;DHT22;10562;-33.856;151.182;2023-11-19T14:19:00;19.80;99.90
20803;DHT22;10562;-33.856;151.182;2023-11-19T14:21:31;19.70;99.90
20803;DHT22;10562;-33.856;151.182;2023-11-19T14:24:02;19.70;99.90
20803;DHT22;10562;-33.856;151.182;2023-11-19T14:26:35;19.70;99.90
20803;DHT22;10562;-33.856;151.182;2023-11-19T14:29:06;19.70;99.90
20803;DHT22;10562;-33.856;151.182;2023-11-19T14:31:37;19.70;99.90
20803;DHT22;10562;-33.856;151.182;2023-11-19T14:34:08;19.70;99.90
20803;DHT22;10562;-33.856;151.182;2023-11-19T14:36:39;19.70;99.90
20803;DHT22;10562;-33.856;151.182;2023-11-19T14:39:10;19.70;99.90
20803;DHT22;10562;-33.856;151.182;2023-11-19T14:41:43;19.60;99.90
20803;DHT22;10562;-33.856;151.182;2023-11-19T14:44:14;19.60;99.90
20803;DHT22;10562;-33.856;151.182;2023-11-19T14:46:45;19.60;99.90
20803;DHT22;10562;-33.856;151.182;2023-11-19T14:49:16;19.60;99.90
20803;DHT22;10562;-33.856;151.182;2023-11-19T14:51:47;19.60;99.90
20803;DHT22;10562;-33.856;151.182;2023-11-19T14:54:18;19.50;99.90
20803;DHT22;10562;-33.856;151.182;2023-11-19T14:56:51;19.50;99.90
20803;DHT22;10562;-33.856;151.182;2023-11-19T14:59:22;19.50;99.90
20803;DHT22;10562;-33.856;151.182;2023-11-19T15:01:53;19.50;99.90
20803;DHT22;10562;-33.856;151.182;2023-11-19T15:04:24;19.50;99.90
20803;DHT22;10562;-33.856;151.182;2023-11-19T15:06:57;19.50;99.90
20803;DHT22;10562;-33.856;151.182;2023-11-19T15:09:28;19.50;99.90
20803;DHT22;10562;-33.856;151.182;2023-11-19T15:12:02;19.40;99.90
20803;DHT22;10562;-33.856;151.182;2023-11-19T15:14:33;19.40;99.90
20803;DHT22;10562;-33.856;151.182;2023-11-19T15:17:04;19.40;99.90
20803;DHT22;10562;-33.856;151.182;2023-11-19T15:19:36;19.40;99.90
20803;DHT22;10562;-33.856;151.182;2023-11-19T15:22:06;19.40;99.90